Time;durP1;ratioP1;P1;durP2;ratioP2;P2;SDS_P1;SDS_P2;PMS_P1;PMS_P2;Temp;Humidity;BMP_temperature;BMP_pressure;BME280_temperature;BME280_humidity;BME280_pressure;Samples;Min_cycle;Max_cycle;Signal;HPM_P1;HPM_P2
2023/07/12 00:01:39;;;;;;;2.63;1.60;;;19.00;99.90;;;;;;5043664;28;20530;-41
2023/07/12 00:04:05;;;;;;;2.22;1.75;;;19.10;99.90;;;;;;5044489;28;20565;-41
2023/07/12 00:06:36;;;;;;;2.45;2.03;;;19.10;99.90;;;;;;5044762;28;20604;-41
2023/07/12 00:09:03;;;;;;;2.88;1.73;;;19.00;99.90;;;;;;5043080;28;20130;-42
2023/07/12 00:11:29;;;;;;;2.25;1.70;;;19.00;99.90;;;;;;5046792;28;20045;-42
2023/07/12 00:13:55;;;;;;;2.60;1.83;;;19.00;99.90;;;;;;5047258;28;20353;-41
2023/07/12 00:16:38;;;;;;;1.92;1.70;;;18.90;99.90;;;;;;5045766;28;20049;-41
2023/07/12 00:19:05;;;;;;;3.17;1.92;;;19.10;99.90;;;;;;5045339;28;20448;-42
2023/07/12 00:21:33;;;;;;;2.38;1.70;;;19.00;99.90;;;;;;5045288;28;20507;-45
2023/07/12 00:24:00;;;;;;;2.83;1.90;;;19.20;99.90;;;;;;5044313;28;20036;-42
2023/07/12 00:26:34;;;;;;;3.00;1.92;;;19.20;99.90;;;;;;5044574;28;20692;-41
2023/07/12 00:29:02;;;;;;;2.30;2.10;;;19.00;99.90;;;;;;5044726;28;20041;-42
2023/07/12 00:31:28;;;;;;;2.92;2.00;;;19.00;99.90;;;;;;5028244;28;20044;-45
2023/07/12 00:33:55;;;;;;;3.08;2.08;;;18.90;99.90;;;;;;5043917;28;20037;-42
2023/07/12 00:36:22;;;;;;;4.03;2.10;;;19.10;99.90;;;;;;5043263;28;20060;-41
2023/07/12 00:38:48;;;;;;;;;;;19.00;99.90;;;;;;5044739;28;20483;-43
2023/07/12 00:41:46;;;;;;;3.20;2.13;;;19.00;99.90;;;;;;5044538;28;20236;-41
2023/07/12 00:44:21;;;;;;;3.17;2.22;;;19.00;99.90;;;;;;5043965;28;20041;-41
2023/07/12 00:46:52;;;;;;;2.85;2.20;;;18.90;99.90;;;;;;5044016;28;20479;-41
2023/07/12 00:49:19;;;;;;;2.67;1.92;;;18.90;99.90;;;;;;5043152;28;20116;-42
2023/07/12 00:51:52;;;;;;;3.13;2.38;;;18.80;99.90;;;;;;5042783;28;20455;-41
2023/07/12 00:54:23;;;;;;;2.53;1.90;;;18.90;99.90;;;;;;5044475;28;20406;-41
2023/07/12 00:56:48;;;;;;;2.25;2.00;;;18.90;99.90;;;;;;5044301;28;20041;-42
2023/07/12 00:59:25;;;;;;;2.58;2.10;;;18.80;99.90;;;;;;5047934;28;20211;-40
2023/07/12 01:01:54;;;;;;;3.15;2.20;;;18.90;99.90;;;;;;5065463;28;20056;-41
2023/07/12 01:04:25;;;;;;;3.28;2.40;;;18.90;99.90;;;;;;5049354;28;20075;-41
2023/07/12 01:06:51;;;;;;;2.95;2.00;;;18.90;99.90;;;;;;5063469;28;20041;-41
2023/07/12 01:09:18;;;;;;;3.22;2.00;;;18.90;99.90;;;;;;5052375;28;20459;-41
2023/07/12 01:11:45;;;;;;;4.10;2.03;;;18.80;99.90;;;;;;5041532;28;20037;-41
2023/07/12 01:14:13;;;;;;;2.50;1.92;;;18.70;99.90;;;;;;5072561;28;20052;-41
2023/07/12 01:16:41;;;;;;;3.55;2.20;;;18.70;99.90;;;;;;5051587;28;20037;-41
2023/07/12 01:19:06;;;;;;;;;;;18.70;99.90;;;;;;5052458;28;20044;-41
2023/07/12 01:21:33;;;;;;;3.05;2.00;;;18.60;99.90;;;;;;5051168;28;19924;-43
2023/07/12 01:24:00;;;;;;;2.13;1.92;;;18.70;99.90;;;;;;5051969;28;20045;-42
2023/07/12 01:26:32;;;;;;;2.40;2.03;;;18.60;99.90;;;;;;5060096;28;20095;-41
2023/07/12 01:29:00;;;;;;;3.40;1.98;;;18.70;99.90;;;;;;5059962;28;20136;-42
2023/07/12 01:31:27;;;;;;;1.92;1.60;;;18.70;99.90;;;;;;5043334;28;20079;-41
2023/07/12 01:33:53;;;;;;;4.35;1.98;;;18.70;99.90;;;;;;5043745;28;20384;-42
2023/07/12 01:36:20;;;;;;;3.35;2.42;;;18.60;99.90;;;;;;5042240;28;20080;-45
2023/07/12 01:38:46;;;;;;;2.92;2.20;;;18.70;99.90;;;;;;5043154;28;20451;-43
2023/07/12 01:41:12;;;;;;;2.88;2.20;;;18.70;99.90;;;;;;5042775;28;20051;-45
2023/07/12 01:43:38;;;;;;;2.38;2.15;;;18.60;99.90;;;;;;5044143;28;21684;-43
2023/07/12 01:46:04;;;;;;;2.55;2.33;;;18.70;99.90;;;;;;5042816;28;20041;-42
2023/07/12 01:48:30;;;;;;;3.13;2.10;;;18.60;99.90;;;;;;5042295;28;20037;-41
2023/07/12 01:50:55;;;;;;;2.85;2.20;;;18.50;99.90;;;;;;5043189;28;20044;-44
2023/07/12 01:53:21;;;;;;;3.72;2.50;;;18.60;99.90;;;;;;5042930;28;20487;-42
2023/07/12 01:55:47;;;;;;;3.45;2.55;;;18.60;99.90;;;;;;5042374;28;20037;-42
2023/07/12 01:58:12;;;;;;;3.25;2.95;;;18.60;99.90;;;;;;5041746;28;20399;-41
2023/07/12 02:00:38;;;;;;;2.78;2.42;;;18.50;99.90;;;;;;5043272;28;20040;-40
2023/07/12 02:03:04;;;;;;;2.95;2.50;;;18.50;99.90;;;;;;5042650;28;20037;-42
2023/07/12 02:05:30;;;;;;;2.83;2.50;;;18.40;99.90;;;;;;5043584;28;20128;-40
2023/07/12 02:07:58;;;;;;;2.70;2.50;;;18.40;99.90;;;;;;5042242;28;20053;-41
2023/07/12 02:10:24;;;;;;;4.97;2.90;;;18.50;99.90;;;;;;5042373;28;20046;-42
2023/07/12 02:12:50;;;;;;;3.83;2.92;;;18.50;99.90;;;;;;5042790;28;20044;-41
2023/07/12 02:15:16;;;;;;;5.13;2.95;;;18.70;99.90;;;;;;5043633;28;20398;-43
2023/07/12 02:17:42;;;;;;;4.25;2.78;;;18.30;99.90;;;;;;5044146;28;20039;-41
2023/07/12 02:20:10;;;;;;;3.92;2.95;;;18.50;99.90;;;;;;5041865;28;20066;-42
2023/07/12 02:22:37;;;;;;;3.75;3.08;;;18.40;99.90;;;;;;5041740;28;20049;-40
2023/07/12 02:25:04;;;;;;;5.43;3.30;;;18.30;99.90;;;;;;5037168;28;20079;-41
2023/07/12 02:27:30;;;;;;;5.15;3.08;;;18.40;99.90;;;;;;5038383;28;20457;-41
2023/07/12 02:29:56;;;;;;;6.70;3.00;;;18.30;99.90;;;;;;5043411;28;20352;-40
2023/07/12 02:32:22;;;;;;;5.22;3.40;;;18.20;99.90;;;;;;5043145;28;20061;-41
2023/07/12 02:34:49;;;;;;;6.88;3.45;;;18.30;99.90;;;;;;5043970;28;20165;-44
2023/07/12 02:37:16;;;;;;;4.05;3.13;;;18.20;99.90;;;;;;5042015;28;20034;-41
2023/07/12 02:39:42;;;;;;;5.05;3.40;;;18.20;99.90;;;;;;5043060;28;20123;-41
2023/07/12 02:42:08;;;;;;;7.85;3.53;;;18.00;99.90;;;;;;5043993;28;20136;-41
2023/07/12 02:44:33;;;;;;;6.43;3.50;;;18.00;99.90;;;;;;5046942;28;20550;-40
2023/07/12 02:46:59;;;;;;;8.13;3.40;;;18.20;99.90;;;;;;5045756;28;20037;-41
2023/07/12 02:49:24;;;;;;;5.60;3.33;;;18.10;99.90;;;;;;5046861;28;20176;-42
2023/07/12 02:51:50;;;;;;;3.95;3.20;;;18.00;99.90;;;;;;5045679;28;20364;-44
2023/07/12 02:54:16;;;;;;;6.03;3.10;;;18.10;99.90;;;;;;5044024;28;20036;-45
2023/07/12 02:56:41;;;;;;;6.22;3.50;;;18.10;99.90;;;;;;5045874;28;20040;-44
2023/07/12 02:59:07;;;;;;;6.75;3.50;;;18.10;99.90;;;;;;5042089;28;20088;-42
2023/07/12 03:01:33;;;;;;;6.47;3.30;;;18.30;99.90;;;;;;5061868;28;20046;-43
2023/07/12 03:03:59;;;;;;;4.88;3.33;;;17.90;99.90;;;;;;5054496;28;20048;-43
2023/07/12 03:06:25;;;;;;;5.38;3.20;;;18.00;99.90;;;;;;5054333;28;20117;-40
2023/07/12 03:08:50;;;;;;;6.50;2.97;;;17.90;99.90;;;;;;5065334;28;20463;-42
2023/07/12 03:11:16;;;;;;;8.75;3.28;;;18.00;99.90;;;;;;5074649;28;20406;-43
2023/07/12 03:13:41;;;;;;;6.78;3.50;;;17.80;99.90;;;;;;5070371;28;20106;-40
2023/07/12 03:16:08;;;;;;;6.28;3.28;;;18.00;99.90;;;;;;5049572;28;20590;-41
2023/07/12 03:18:34;;;;;;;7.43;3.25;;;17.90;99.90;;;;;;5053752;28;20041;-43
2023/07/12 03:21:05;;;;;;;5.95;3.40;;;17.90;99.90;;;;;;5054286;28;20041;-41
2023/07/12 03:23:33;;;;;;;6.00;3.30;;;17.80;99.90;;;;;;5069868;22;20056;-40
2023/07/12 03:25:59;;;;;;;;;;;18.00;99.90;;;;;;5055815;28;20380;-39
2023/07/12 03:28:25;;;;;;;10.23;3.40;;;17.90;99.90;;;;;;5053857;28;19927;-39
2023/07/12 03:31:05;;;;;;;6.53;2.80;;;17.90;99.90;;;;;;5047858;28;20041;-41
2023/07/12 03:33:31;;;;;;;7.78;3.70;;;17.80;99.90;;;;;;5048440;28;20514;-40
2023/07/12 03:35:57;;;;;;;6.38;3.50;;;17.90;99.90;;;;;;5043778;28;20037;-39
2023/07/12 03:38:25;;;;;;;7.10;3.40;;;17.80;99.90;;;;;;5040212;28;20033;-39
2023/07/12 03:40:55;;;;;;;5.65;3.78;;;17.80;99.90;;;;;;5046663;28;20056;-39
2023/07/12 03:43:21;;;;;;;5.88;3.65;;;17.80;99.90;;;;;;5041753;28;20053;-39
2023/07/12 03:45:47;;;;;;;6.85;2.95;;;17.80;99.90;;;;;;5042778;28;20056;-42
2023/07/12 03:48:12;;;;;;;6.97;3.00;;;17.80;99.90;;;;;;5042304;28;20029;-41
2023/07/12 03:50:42;;;;;;;7.38;2.95;;;17.70;99.90;;;;;;5042604;28;20048;-42
2023/07/12 03:53:08;;;;;;;5.68;3.10;;;17.70;99.90;;;;;;5040842;28;20080;-40
2023/07/12 03:55:44;;;;;;;8.32;3.20;;;17.70;99.90;;;;;;5042171;28;20388;-41
2023/07/12 03:58:17;;;;;;;10.27;3.45;;;17.70;99.90;;;;;;5040596;28;20388;-39
2023/07/12 04:00:45;;;;;;;8.10;4.03;;;17.60;99.90;;;;;;5041592;28;20090;-41
2023/07/12 04:03:11;;;;;;;8.48;4.18;;;17.60;99.90;;;;;;5041324;28;20187;-40
2023/07/12 04:05:38;;;;;;;8.35;4.10;;;17.60;99.90;;;;;;5042030;28;20192;-39
2023/07/12 04:08:04;;;;;;;6.70;3.90;;;17.40;99.90;;;;;;5040791;28;20045;-41
2023/07/12 04:10:32;;;;;;;6.05;3.88;;;;;;;;;;5045600;28;20136;-39
2023/07/12 04:12:58;;;;;;;7.50;4.10;;;;;;;;;;5043853;28;20091;-39
2023/07/12 04:15:24;;;;;;;8.82;4.38;;;;;;;;;;5044439;28;20495;-39
2023/07/12 04:17:50;;;;;;;7.25;3.90;;;;;;;;;;5044360;28;20072;-41
2023/07/12 04:20:16;;;;;;;6.85;4.50;;;;;;;;;;5044418;28;20128;-40
2023/07/12 04:22:43;;;;;;;7.05;4.32;;;;;;;;;;5039527;28;20064;-39
2023/07/12 04:25:09;;;;;;;5.50;4.35;;;;;;;;;;5029663;28;20041;-42
2023/07/12 04:27:37;;;;;;;8.23;4.10;;;;;;;;;;5036508;28;20052;-40
2023/07/12 04:30:06;;;;;;;6.80;4.05;;;;;;;;;;5040962;28;20037;-40
2023/07/12 04:32:32;;;;;;;7.20;4.28;;;;;;;;;;5026766;28;20060;-39
2023/07/12 04:34:58;;;;;;;10.00;4.47;;;;;;;;;;5020568;28;20507;-41
2023/07/12 04:37:24;;;;;;;9.63;4.60;;;17.90;99.90;;;;;;5031781;28;20037;-40
2023/07/12 04:39:50;;;;;;;6.75;4.20;;;17.90;99.90;;;;;;5041660;28;20487;-39
2023/07/12 04:42:15;;;;;;;6.80;4.13;;;17.80;99.90;;;;;;5043489;28;20043;-39
2023/07/12 04:44:41;;;;;;;9.02;4.35;;;17.60;99.90;;;;;;5044756;28;20047;-39
2023/07/12 04:47:07;;;;;;;6.03;3.80;;;17.70;99.90;;;;;;5043316;28;20036;-39
2023/07/12 04:49:33;;;;;;;6.70;4.28;;;17.70;99.90;;;;;;5039643;28;20406;-39
2023/07/12 04:51:59;;;;;;;7.05;4.13;;;17.60;99.90;;;;;;5045840;28;20123;-39
2023/07/12 04:54:25;;;;;;;8.40;4.38;;;17.80;99.90;;;;;;5047017;28;20041;-39
2023/07/12 04:56:51;;;;;;;9.00;4.20;;;;;;;;;;5044399;28;20365;-40
2023/07/12 04:59:18;;;;;;;10.45;4.38;;;;;;;;;;5037105;28;20041;-40
2023/07/12 05:01:45;;;;;;;6.63;3.85;;;18.10;99.90;;;;;;5035833;28;20050;-41
2023/07/12 05:04:11;;;;;;;8.52;4.72;;;17.90;99.90;;;;;;5035438;28;20438;-41
2023/07/12 05:06:37;;;;;;;8.02;4.22;;;18.00;99.90;;;;;;5036922;28;20546;-41
2023/07/12 05:09:05;;;;;;;7.45;4.35;;;;;;;;;;5039508;28;20120;-40
2023/07/12 05:11:34;;;;;;;7.22;4.32;;;;;;;;;;5045366;28;20041;-39
2023/07/12 05:14:00;;;;;;;6.97;4.60;;;;;;;;;;5040942;28;20546;-38
2023/07/12 05:16:26;;;;;;;9.30;4.53;;;;;;;;;;5034830;28;20128;-39
2023/07/12 05:18:52;;;;;;;11.02;4.97;;;;;;;;;;5034593;28;20060;-40
2023/07/12 05:21:20;;;;;;;7.90;4.85;;;18.30;99.90;;;;;;5036480;28;20133;-42
2023/07/12 05:23:45;;;;;;;9.80;4.82;;;18.60;99.90;;;;;;5041046;28;20092;-41
2023/07/12 05:26:11;;;;;;;9.55;4.68;;;18.70;99.90;;;;;;5042618;28;20045;-42
2023/07/12 05:28:37;;;;;;;9.38;4.93;;;18.80;99.90;;;;;;5026507;28;20050;-39
2023/07/12 05:31:08;;;;;;;9.82;4.70;;;18.60;99.90;;;;;;5034993;28;20041;-41
2023/07/12 05:33:33;;;;;;;8.48;4.80;;;18.80;99.90;;;;;;5023745;28;20677;-40
2023/07/12 05:36:01;;;;;;;4.85;4.30;;;18.70;99.90;;;;;;5039031;28;20148;-39
2023/07/12 05:38:27;;;;;;;9.20;5.18;;;18.40;99.90;;;;;;5040217;28;20041;-41
2023/07/12 05:40:56;;;;;;;10.00;5.50;;;18.80;99.90;;;;;;5064020;22;20573;-43
2023/07/12 05:43:23;;;;;;;11.00;5.57;;;18.60;99.90;;;;;;5024959;28;20042;-41
2023/07/12 05:45:49;;;;;;;9.77;5.32;;;18.70;99.90;;;;;;5022749;28;20089;-43
2023/07/12 05:48:15;;;;;;;9.18;5.28;;;18.90;99.90;;;;;;5024541;28;20053;-41
2023/07/12 05:50:40;;;;;;;12.48;5.85;;;18.80;99.90;;;;;;5024160;28;20046;-44
2023/07/12 05:53:06;;;;;;;10.98;5.50;;;18.80;99.90;;;;;;5024783;28;20630;-41
2023/07/12 05:55:32;;;;;;;13.05;5.50;;;18.80;99.90;;;;;;5024705;28;20084;-40
2023/07/12 05:57:58;;;;;;;8.77;5.30;;;19.10;99.90;;;;;;5026479;28;20132;-41
2023/07/12 06:00:23;;;;;;;10.25;5.65;;;18.80;99.90;;;;;;5023786;28;20547;-41
2023/07/12 06:02:49;;;;;;;15.65;6.18;;;19.00;99.90;;;;;;5024708;28;20038;-41
2023/07/12 06:05:16;;;;;;;9.95;5.13;;;18.80;99.90;;;;;;5024026;28;20476;-44
2023/07/12 06:07:42;;;;;;;12.82;5.65;;;18.70;99.90;;;;;;5022066;28;20136;-42
2023/07/12 06:10:08;;;;;;;10.55;5.43;;;19.00;99.90;;;;;;5023367;28;20132;-41
2023/07/12 06:12:34;;;;;;;12.77;5.82;;;19.00;99.90;;;;;;5022895;28;21748;-43
2023/07/12 06:15:00;;;;;;;11.68;5.68;;;;;;;;;;5026579;28;20068;-40
2023/07/12 06:17:25;;;;;;;10.55;5.63;;;18.90;99.90;;;;;;5027311;28;20041;-41
2023/07/12 06:19:51;;;;;;;8.38;5.72;;;19.30;99.90;;;;;;5025261;28;20078;-41
2023/07/12 06:22:17;;;;;;;11.98;6.05;;;19.80;99.90;;;;;;5026871;28;20041;-42
2023/07/12 06:24:42;;;;;;;11.82;5.93;;;20.10;99.90;;;;;;5027368;28;20121;-40
2023/07/12 06:27:08;;;;;;;10.27;5.85;;;20.10;99.90;;;;;;5028360;28;20057;-40
2023/07/12 06:29:34;;;;;;;12.13;5.85;;;20.10;99.90;;;;;;5026889;28;20075;-42
2023/07/12 06:31:59;;;;;;;10.38;5.93;;;20.10;99.90;;;;;;5026522;28;20369;-42
2023/07/12 06:34:25;;;;;;;9.80;5.38;;;19.90;99.90;;;;;;5027085;28;20049;-40
2023/07/12 06:36:50;;;;;;;8.98;5.43;;;20.00;99.90;;;;;;5025971;28;20053;-42
2023/07/12 06:39:16;;;;;;;10.48;5.63;;;20.00;99.90;;;;;;5027172;28;20043;-40
2023/07/12 06:41:42;;;;;;;10.27;5.38;;;20.10;99.90;;;;;;5026035;28;20072;-41
2023/07/12 06:44:08;;;;;;;12.00;5.63;;;20.20;99.90;;;;;;5019828;28;20168;-42
2023/07/12 06:46:33;;;;;;;12.57;6.45;;;20.30;99.90;;;;;;5018750;28;20736;-40
2023/07/12 06:48:59;;;;;;;9.57;6.35;;;20.40;99.90;;;;;;5023342;28;20775;-40
2023/07/12 06:51:25;;;;;;;8.95;5.20;;;21.00;99.90;;;;;;5024041;28;20103;-41
2023/07/12 06:53:50;;;;;;;8.75;5.10;;;21.30;99.90;;;;;;5025431;28;20077;-40
2023/07/12 06:56:16;;;;;;;8.63;5.22;;;21.40;99.90;;;;;;5025520;28;20163;-42
2023/07/12 06:58:42;;;;;;;9.50;4.93;;;21.80;99.90;;;;;;5030390;28;20514;-42
2023/07/12 07:01:09;;;;;;;13.68;5.40;;;22.20;99.90;;;;;;5031026;28;20037;-41
2023/07/12 07:03:35;;;;;;;;;;;22.10;99.90;;;;;;5025184;28;20042;-41
2023/07/12 07:06:00;;;;;;;8.45;4.55;;;21.90;99.90;;;;;;5024605;28;19927;-41
2023/07/12 07:08:27;;;;;;;8.43;4.70;;;21.50;99.90;;;;;;5040857;28;20041;-42
2023/07/12 07:10:53;;;;;;;9.40;4.00;;;21.30;99.90;;;;;;5024804;28;20048;-42
2023/07/12 07:13:24;;;;;;;6.80;3.90;;;20.70;99.90;;;;;;5024558;28;20041;-42
2023/07/12 07:15:53;;;;;;;13.00;4.50;;;20.70;99.90;;;;;;5024996;28;20040;-43
2023/07/12 07:18:19;;;;;;;7.47;3.65;;;20.60;99.90;;;;;;5024519;28;20037;-42
2023/07/12 07:20:45;;;;;;;8.18;4.03;;;20.30;99.90;;;;;;5025410;28;20041;-41
2023/07/12 07:23:11;;;;;;;9.75;4.38;;;20.40;99.90;;;;;;5024209;28;20531;-41
2023/07/12 07:25:38;;;;;;;10.40;4.53;;;20.50;99.90;;;;;;5025033;28;20034;-42
2023/07/12 07:28:04;;;;;;;8.20;3.97;;;20.50;99.90;;;;;;5025024;28;20029;-42
2023/07/12 07:30:30;;;;;;;7.82;4.63;;;20.80;99.90;;;;;;5024168;28;20049;-42
2023/07/12 07:32:57;;;;;;;9.75;5.07;;;20.90;99.90;;;;;;5021994;28;20069;-41
2023/07/12 07:35:24;;;;;;;7.80;4.25;;;21.10;99.90;;;;;;5028726;28;20517;-39
2023/07/12 07:37:49;;;;;;;11.07;4.70;;;22.60;99.90;;;;;;5025016;28;20610;-40
2023/07/12 07:40:15;;;;;;;15.48;4.80;;;22.90;99.90;;;;;;5026528;28;20068;-39
2023/07/12 07:42:41;;;;;;;8.95;4.40;;;23.50;99.90;;;;;;5025692;28;20368;-38
2023/07/12 07:45:09;;;;;;;10.48;4.65;;;24.00;99.90;;;;;;5028007;28;20084;-38
2023/07/12 07:47:35;;;;;;;;;;;23.90;99.90;;;;;;5021682;28;20057;-39
2023/07/12 07:50:01;;;;;;;10.88;4.20;;;23.80;99.90;;;;;;5025081;28;20586;-39
2023/07/12 07:52:27;;;;;;;7.68;3.80;;;23.30;99.90;;;;;;5024704;28;20621;-39
2023/07/12 07:54:53;;;;;;;6.68;3.45;;;23.20;99.90;;;;;;5025399;28;20060;-39
2023/07/12 07:57:20;;;;;;;8.60;3.72;;;23.00;99.90;;;;;;5021267;28;20034;-39
2023/07/12 07:59:46;;;;;;;9.25;3.65;;;23.00;99.90;;;;;;5022764;28;20491;-40
2023/07/12 08:02:12;;;;;;;9.02;4.10;;;;;;;;;;5022342;28;20471;-39
2023/07/12 08:04:37;;;;;;;8.10;3.65;;;23.10;99.90;;;;;;5022460;28;20125;-41
2023/07/12 08:07:05;;;;;;;8.35;3.90;;;23.00;99.90;;;;;;5023452;28;20037;-40
2023/07/12 08:09:34;;;;;;;8.82;4.20;;;23.10;99.90;;;;;;5025969;28;20718;-41
2023/07/12 08:12:00;;;;;;;16.08;4.60;;;23.00;99.90;;;;;;5024416;28;20049;-38
2023/07/12 08:14:26;;;;;;;9.93;3.35;;;23.00;99.90;;;;;;5024490;28;20041;-39
2023/07/12 08:16:52;;;;;;;7.07;3.22;;;23.20;99.90;;;;;;5023994;28;20088;-39
2023/07/12 08:19:17;;;;;;;13.07;3.45;;;23.20;99.90;;;;;;5022250;28;20045;-38
2023/07/12 08:21:44;;;;;;;11.20;3.22;;;23.50;99.90;;;;;;5028520;28;20042;-39
2023/07/12 08:24:09;;;;;;;8.68;3.63;;;23.20;99.90;;;;;;5029953;28;20050;-42
2023/07/12 08:26:36;;;;;;;13.25;3.50;;;22.90;99.90;;;;;;5034160;28;20048;-39
2023/07/12 08:29:02;;;;;;;9.30;3.55;;;22.50;99.90;;;;;;5029783;28;20529;-41
2023/07/12 08:31:27;;;;;;;9.13;3.65;;;22.50;99.90;;;;;;5025033;28;20065;-39
2023/07/12 08:33:55;;;;;;;9.68;3.78;;;22.50;99.90;;;;;;5023421;28;20132;-39
2023/07/12 08:36:20;;;;;;;7.55;3.33;;;22.40;99.90;;;;;;5018776;28;20088;-38
2023/07/12 08:38:46;;;;;;;10.57;4.20;;;22.30;99.90;;;;;;5025271;28;20504;-40
2023/07/12 08:41:15;;;;;;;7.18;3.40;;;22.10;99.90;;;;;;5025432;28;20087;-38
2023/07/12 08:43:41;;;;;;;7.07;3.97;;;22.20;99.90;;;;;;5026534;28;20041;-40
2023/07/12 08:46:17;;;;;;;12.43;3.10;;;22.20;99.90;;;;;;5024770;28;20065;-41
2023/07/12 08:48:43;;;;;;;6.65;3.58;;;22.10;99.90;;;;;;5023286;28;20526;-39
2023/07/12 08:51:19;;;;;;;8.35;3.90;;;22.20;99.90;;;;;;5032754;28;20037;-40
2023/07/12 08:53:45;;;;;;;8.80;3.80;;;22.00;99.90;;;;;;5032321;28;20073;-39
2023/07/12 08:56:15;;;;;;;8.00;3.38;;;22.30;99.90;;;;;;5032771;28;20053;-40
2023/07/12 08:58:46;;;;;;;8.07;3.72;;;22.30;99.90;;;;;;5032751;28;20128;-38
2023/07/12 09:01:16;;;;;;;10.35;3.67;;;22.60;99.90;;;;;;5030242;28;20498;-39
2023/07/12 09:03:43;;;;;;;8.25;3.70;;;22.60;99.90;;;;;;5028916;28;20037;-39
2023/07/12 09:06:17;;;;;;;9.85;3.47;;;22.90;99.90;;;;;;5026293;28;20050;-38
2023/07/12 09:08:49;;;;;;;11.40;3.65;;;23.00;99.90;;;;;;5028182;28;20506;-39
2023/07/12 09:11:20;;;;;;;9.57;3.78;;;23.20;99.90;;;;;;5026576;28;20052;-40
2023/07/12 09:13:46;;;;;;;8.10;3.95;;;23.60;99.90;;;;;;5029147;28;20049;-39
2023/07/12 09:16:28;;;;;;;12.37;3.60;;;23.90;99.90;;;;;;5027734;28;20075;-39
2023/07/12 09:18:57;;;;;;;14.48;4.18;;;24.00;99.90;;;;;;5028186;28;20097;-40
2023/07/12 09:21:26;;;;;;;10.77;3.47;;;23.90;99.90;;;;;;5023523;28;21677;-41
2023/07/12 09:23:53;;;;;;;6.60;3.40;;;23.60;99.90;;;;;;5025099;28;20037;-39
2023/07/12 09:26:24;;;;;;;;;;;23.50;99.90;;;;;;5028718;28;20037;-41
2023/07/12 09:28:55;;;;;;;6.68;3.05;;;23.20;99.90;;;;;;5023729;28;20018;-39
2023/07/12 09:31:23;;;;;;;10.68;3.83;;;22.90;99.90;;;;;;5029379;28;20052;-38
2023/07/12 09:34:00;;;;;;;8.20;2.92;;;22.70;99.90;;;;;;5030489;28;20100;-38
2023/07/12 09:36:26;;;;;;;6.87;2.80;;;22.70;99.90;;;;;;5029375;28;20072;-40
2023/07/12 09:38:58;;;;;;;9.50;3.03;;;22.70;99.90;;;;;;5027518;28;20460;-40
2023/07/12 09:41:25;;;;;;;6.57;2.78;;;22.80;99.90;;;;;;5027587;28;20058;-40
2023/07/12 09:43:58;;;;;;;8.07;2.72;;;22.80;99.90;;;;;;5030098;28;20080;-38
2023/07/12 09:46:33;;;;;;;7.90;3.00;;;22.90;99.90;;;;;;5027178;28;20049;-40
2023/07/12 09:49:07;;;;;;;6.90;2.75;;;23.10;99.90;;;;;;5017354;28;20087;-39
2023/07/12 09:52:05;;;;;;;7.65;3.30;;;23.50;99.90;;;;;;5015449;28;20045;-40
2023/07/12 09:54:53;;;;;;;8.95;2.80;;;23.30;99.90;;;;;;5016988;28;20045;-41
2023/07/12 09:57:46;;;;;;;9.75;2.78;;;23.20;99.90;;;;;;5031350;28;20531;-40
2023/07/12 10:00:27;;;;;;;12.23;2.63;;;22.90;99.90;;;;;;5036444;28;20051;-38
2023/07/12 10:03:19;;;;;;;7.38;2.90;;;22.70;99.90;;;;;;5036432;28;20465;-40
2023/07/12 10:06:28;;;;;;;11.50;2.63;;;22.50;99.90;;;;;;5034157;28;20049;-40
2023/07/12 10:09:31;;;;;;;7.60;2.85;;;22.40;99.90;;;;;;5034977;28;20050;-39
2023/07/12 10:12:18;;;;;;;6.57;2.72;;;22.30;99.90;;;;;;5034808;28;20049;-39
2023/07/12 10:14:46;;;;;;;7.07;2.90;;;22.30;99.90;;;;;;5035997;28;20090;-39
2023/07/12 10:17:18;;;;;;;;;;;22.20;99.90;;;;;;5030238;28;20481;-39
2023/07/12 10:19:49;;;;;;;14.57;4.18;;;21.80;99.90;;;;;;5036316;28;19921;-39
2023/07/12 10:22:23;;;;;;;17.45;5.03;;;;;;;;;;5035910;28;20120;-41
2023/07/12 10:24:50;;;;;;;13.65;4.60;;;20.10;99.90;;;;;;5036204;28;20053;-40
2023/07/12 10:27:23;;;;;;;7.20;3.30;;;19.80;99.90;;;;;;5035054;28;20049;-41
2023/07/12 10:30:00;;;;;;;5.30;2.90;;;19.50;99.90;;;;;;5035747;28;20084;-38
2023/07/12 10:32:41;;;;;;;6.93;3.10;;;19.30;99.90;;;;;;5035310;28;20391;-39
2023/07/12 10:35:34;;;;;;;7.50;3.45;;;19.20;99.90;;;;;;5036295;28;20116;-40
2023/07/12 10:38:14;;;;;;;9.73;3.00;;;19.20;99.90;;;;;;5033944;28;20038;-39
2023/07/12 10:40:57;;;;;;;7.07;3.00;;;19.10;99.90;;;;;;5030422;28;20056;-40
2023/07/12 10:43:36;;;;;;;5.40;2.95;;;19.20;99.90;;;;;;5031234;28;20049;-40
2023/07/12 10:46:15;;;;;;;6.13;3.20;;;19.30;99.90;;;;;;5032489;28;20057;-41
2023/07/12 10:48:49;;;;;;;5.20;2.80;;;19.60;99.90;;;;;;5035330;28;20125;-40
2023/07/12 10:51:40;;;;;;;6.40;3.10;;;19.90;99.90;;;;;;5035869;28;20534;-40
2023/07/12 10:54:28;;;;;;;6.72;2.97;;;20.10;99.90;;;;;;5021064;28;20057;-40
2023/07/12 10:56:55;;;;;;;7.50;4.35;;;20.30;99.90;;;;;;5031786;28;20431;-39
2023/07/12 10:59:33;;;;;;;6.22;3.25;;;20.30;99.90;;;;;;5032238;28;20041;-39
2023/07/12 11:02:20;;;;;;;11.05;4.10;;;20.30;99.90;;;;;;5032345;28;20055;-39
2023/07/12 11:04:46;;;;;;;;;;;20.30;99.90;;;;;;5012342;28;20073;-40
2023/07/12 11:07:12;;;;;;;6.80;3.67;;;20.30;99.90;;;;;;5026925;28;20030;-41
2023/07/12 11:09:45;;;;;;;10.57;3.80;;;20.30;99.90;;;;;;5027007;28;20298;-39
2023/07/12 11:12:36;;;;;;;11.80;4.72;;;20.50;99.90;;;;;;5029638;28;20145;-40
2023/07/12 11:15:21;;;;;;;8.23;3.33;;;20.70;99.90;;;;;;5016400;28;20060;-40
2023/07/12 11:18:03;;;;;;;6.47;3.78;;;;;;;;;;5028092;28;20045;-43
2023/07/12 11:20:35;;;;;;;5.80;3.42;;;21.30;99.90;;;;;;5026651;28;20099;-41
2023/07/12 11:23:07;;;;;;;6.85;3.38;;;;;;;;;;5035010;28;20049;-43
2023/07/12 11:25:40;;;;;;;4.88;2.90;;;;;;;;;;5033242;28;20045;-41
2023/07/12 11:28:28;;;;;;;6.50;3.00;;;22.10;99.90;;;;;;5033387;28;20050;-40
2023/07/12 11:31:18;;;;;;;6.43;3.50;;;22.40;99.90;;;;;;5028993;28;20080;-40
2023/07/12 11:34:11;;;;;;;7.97;2.97;;;22.60;99.90;;;;;;5023704;28;20041;-39
2023/07/12 11:36:39;;;;;;;8.73;3.00;;;22.70;99.90;;;;;;5023879;28;20055;-40
2023/07/12 11:39:16;;;;;;;8.02;3.47;;;22.90;99.90;;;;;;5031604;28;20411;-41
2023/07/12 11:41:55;;;;;;;8.15;2.88;;;22.80;99.90;;;;;;5032826;28;20076;-39
2023/07/12 11:44:20;;;;;;;6.15;2.67;;;22.80;99.90;;;;;;5016511;28;20042;-40
2023/07/12 11:46:50;;;;;;;8.50;3.08;;;22.80;99.90;;;;;;5032530;28;20091;-40
2023/07/12 11:49:25;;;;;;;7.40;2.85;;;23.10;99.90;;;;;;5034106;28;20049;-41
2023/07/12 11:52:02;;;;;;;6.43;2.72;;;22.80;99.90;;;;;;5031516;28;20049;-40
2023/07/12 11:54:36;;;;;;;8.43;3.22;;;22.70;99.90;;;;;;5031294;28;20045;-41
2023/07/12 11:57:02;;;;;;;7.93;3.22;;;22.50;99.90;;;;;;5018203;28;20050;-39
2023/07/12 11:59:36;;;;;;;8.20;3.70;;;22.20;99.90;;;;;;5023892;28;20049;-41
2023/07/12 12:02:05;;;;;;;7.35;3.28;;;22.10;99.90;;;;;;5032529;28;20057;-42
2023/07/12 12:04:31;;;;;;;6.10;2.80;;;22.00;99.90;;;;;;5028627;28;20111;-42
2023/07/12 12:07:07;;;;;;;6.32;3.03;;;22.00;99.90;;;;;;5032216;28;20087;-42
2023/07/12 12:09:35;;;;;;;7.55;2.80;;;22.00;99.90;;;;;;5029533;28;20080;-40
2023/07/12 12:12:06;;;;;;;10.85;2.72;;;22.00;99.90;;;;;;5031632;28;20037;-39
2023/07/12 12:14:40;;;;;;;11.85;3.10;;;22.10;99.90;;;;;;5031816;28;20439;-40
2023/07/12 12:17:12;;;;;;;8.82;2.63;;;22.10;99.90;;;;;;5032701;28;20049;-40
2023/07/12 12:19:38;;;;;;;6.05;2.65;;;22.10;99.90;;;;;;5032936;28;20061;-39
2023/07/12 12:22:13;;;;;;;5.97;3.33;;;22.30;99.90;;;;;;5030907;28;20041;-39
2023/07/12 12:24:50;;;;;;;7.78;3.42;;;22.50;99.90;;;;;;5031996;28;20504;-40
2023/07/12 12:27:18;;;;;;;9.25;3.33;;;22.30;99.90;;;;;;5032400;28;20056;-39
2023/07/12 12:29:44;;;;;;;7.47;3.40;;;22.20;99.90;;;;;;5032580;28;20107;-41
2023/07/12 12:32:15;;;;;;;10.65;3.63;;;22.20;99.90;;;;;;5032297;28;20041;-42
2023/07/12 12:34:47;;;;;;;6.25;2.83;;;22.10;99.90;;;;;;5025401;28;20057;-39
2023/07/12 12:37:27;;;;;;;7.38;2.65;;;22.20;99.90;;;;;;5027597;28;20042;-39
2023/07/12 12:39:57;;;;;;;6.82;2.95;;;22.40;99.90;;;;;;5028503;28;20128;-39
2023/07/12 12:42:27;;;;;;;6.63;2.60;;;22.50;99.90;;;;;;5028156;28;20045;-39
2023/07/12 12:44:54;;;;;;;6.55;2.92;;;22.40;99.90;;;;;;5030157;28;20521;-39
2023/07/12 12:47:31;;;;;;;9.05;2.80;;;22.60;99.90;;;;;;5025358;28;20557;-39
2023/07/12 12:50:00;;;;;;;6.32;3.25;;;22.70;99.90;;;;;;5032481;28;20041;-39
2023/07/12 12:52:32;;;;;;;7.22;3.10;;;22.70;99.90;;;;;;5032413;28;20041;-39
2023/07/12 12:55:04;;;;;;;5.95;2.42;;;22.60;99.90;;;;;;5031734;28;20511;-39
2023/07/12 12:57:31;;;;;;;7.50;2.50;;;22.50;99.90;;;;;;5031883;28;20053;-39
2023/07/12 12:59:57;;;;;;;6.97;2.80;;;22.60;99.90;;;;;;5031670;28;20044;-39
2023/07/12 13:02:24;;;;;;;6.43;2.88;;;22.80;99.90;;;;;;5026760;28;20108;-40
2023/07/12 13:04:53;;;;;;;6.10;2.33;;;22.80;99.90;;;;;;5029283;28;20056;-39
2023/07/12 13:07:28;;;;;;;5.40;1.90;;;23.00;99.90;;;;;;5024939;28;20091;-41